Douradina, Brazil
Current Conditions -  °F | °C
As of 1:00 PM on Friday 19 Dec 2014 (Local Time) from SBCG Reporting Station
Broken Clouds Broken Clouds  
Wind Chill: 84°   Ceiling: 2600
Heat Index: 90°   Visibility: 6mi
Dew Point: 72°   Wind: 8mph
Humidity: 66%   Direction: 330°NNW
Pressure: 29.83"   Gusts: NA
Location:  22.04°S, 54.61°W
Report Text: SBCG 191600Z 33007KT 9999 BKN026 FEW040TCU 29/22 Q1010
Loading
Personal Weather Stations






























Interactive Weather Map New forecast layout! Learn more

10-Day Weather Forecast

Advertisements
Track Severe Weather on mobile